Time;durP1;ratioP1;P1;durP2;ratioP2;P2;SDS_P1;SDS_P2;PMS_P1;PMS_P2;Temp;Humidity;BMP_temperature;BMP_pressure;BME280_temperature;BME280_humidity;BME280_pressure;Samples;Min_cycle;Max_cycle;Signal;HPM_P1;HPM_P2
2021/01/10 00:00:11;;;;;;;33.87;23.10;;;2.30;99.90;;;;;;5072380;28;20211;-74
2021/01/10 00:02:38;;;;;;;37.27;24.50;;;2.30;99.90;;;;;;5071963;28;20211;-78
2021/01/10 00:05:08;;;;;;;31.73;23.50;;;2.20;99.90;;;;;;5072605;28;20206;-82
2021/01/10 00:07:34;;;;;;;37.20;25.97;;;2.30;99.90;;;;;;5072193;28;20229;-80
2021/01/10 00:10:00;;;;;;;35.53;25.80;;;2.20;99.90;;;;;;5071245;28;20206;-80
2021/01/10 00:12:28;;;;;;;33.73;24.60;;;2.30;99.90;;;;;;5071488;28;20216;-73
2021/01/10 00:14:55;;;;;;;32.20;24.97;;;2.30;99.90;;;;;;5071185;28;20208;-77
2021/01/10 00:17:22;;;;;;;40.73;26.60;;;2.30;99.90;;;;;;5071421;28;20288;-79
2021/01/10 00:19:49;;;;;;;39.97;27.37;;;2.30;99.90;;;;;;5071213;28;20206;-72
2021/01/10 00:22:18;;;;;;;35.30;26.07;;;2.20;99.90;;;;;;5071786;28;20206;-81
2021/01/10 00:24:45;;;;;;;38.37;27.67;;;2.20;99.90;;;;;;5071223;28;20306;-82
2021/01/10 00:27:13;;;;;;;35.03;26.43;;;2.30;99.90;;;;;;5058164;28;20236;-85
2021/01/10 00:29:42;;;;;;;39.73;26.60;;;2.30;99.90;;;;;;5071465;28;20284;-70
2021/01/10 00:32:08;;;;;;;40.20;25.53;;;2.20;99.90;;;;;;5071431;28;20213;-69
2021/01/10 00:34:35;;;;;;;41.47;26.00;;;2.20;99.90;;;;;;5072355;28;20247;-76
2021/01/10 00:37:01;;;;;;;39.73;28.17;;;2.10;99.90;;;;;;5071255;28;20247;-86
2021/01/10 00:39:28;;;;;;;34.37;27.20;;;2.10;99.90;;;;;;5071291;28;20234;-77
2021/01/10 00:41:55;;;;;;;37.57;27.37;;;2.10;99.90;;;;;;5069991;28;20213;-73
2021/01/10 00:44:21;;;;;;;36.67;26.40;;;2.10;99.90;;;;;;5070840;28;20198;-74
2021/01/10 00:46:51;;;;;;;39.30;26.43;;;2.20;99.90;;;;;;5070755;28;20296;-72
2021/01/10 00:49:17;;;;;;;35.37;25.03;;;2.20;99.90;;;;;;5070863;28;20206;-78
2021/01/10 00:51:43;;;;;;;36.83;26.90;;;2.20;99.90;;;;;;5070847;28;20249;-71
2021/01/10 00:54:10;;;;;;;36.57;27.23;;;2.20;99.90;;;;;;5070831;28;20697;-74
2021/01/10 00:56:37;;;;;;;33.80;24.83;;;2.10;99.90;;;;;;5071177;28;20206;-70
2021/01/10 00:59:04;;;;;;;40.47;27.40;;;2.10;99.90;;;;;;5070660;28;20217;-72
2021/01/10 01:01:30;;;;;;;36.20;25.97;;;2.00;99.90;;;;;;5070839;28;20206;-80
2021/01/10 01:03:57;;;;;;;41.07;28.17;;;2.00;99.90;;;;;;5070945;28;20202;-72
2021/01/10 01:06:23;;;;;;;37.37;26.33;;;2.10;99.90;;;;;;5070392;28;20218;-79
2021/01/10 01:08:50;;;;;;;41.13;27.33;;;2.10;99.90;;;;;;5070679;28;20206;-82
2021/01/10 01:11:16;;;;;;;37.17;25.37;;;2.20;99.90;;;;;;5070633;28;20210;-70
2021/01/10 01:13:43;;;;;;;42.13;28.07;;;2.10;99.90;;;;;;5070685;28;20563;-78
2021/01/10 01:16:10;;;;;;;36.67;24.60;;;2.20;99.90;;;;;;5070868;28;20221;-77
2021/01/10 01:18:36;;;;;;;34.13;22.70;;;2.20;99.90;;;;;;5071047;28;20210;-84
2021/01/10 01:21:03;;;;;;;29.10;22.03;;;2.20;99.90;;;;;;5070604;28;20213;-75
2021/01/10 01:23:29;;;;;;;31.03;22.00;;;2.20;99.90;;;;;;5070671;28;20201;-79
2021/01/10 01:25:56;;;;;;;33.40;24.83;;;2.20;99.90;;;;;;5069870;28;20685;-76
2021/01/10 01:28:22;;;;;;;29.67;22.77;;;2.20;99.90;;;;;;5070562;28;20205;-74
2021/01/10 01:30:49;;;;;;;35.97;25.17;;;2.10;99.90;;;;;;5070458;28;20229;-80
2021/01/10 01:33:16;;;;;;;32.30;23.00;;;2.10;99.90;;;;;;5070687;28;20220;-73
2021/01/10 01:35:42;;;;;;;34.83;24.30;;;2.00;99.90;;;;;;5070342;28;20211;-75
2021/01/10 01:38:08;;;;;;;30.93;24.47;;;2.10;99.90;;;;;;5070867;28;20209;-71
2021/01/10 01:40:35;;;;;;;34.13;23.23;;;2.10;99.90;;;;;;5070088;28;20201;-76
2021/01/10 01:43:01;;;;;;;33.50;22.63;;;2.20;99.90;;;;;;5069819;28;20210;-72
2021/01/10 01:45:28;;;;;;;30.47;22.70;;;2.10;99.90;;;;;;5070076;28;20206;-73
2021/01/10 01:47:55;;;;;;;30.60;20.90;;;2.10;99.90;;;;;;5069549;28;20785;-76
2021/01/10 01:50:22;;;;;;;34.33;22.80;;;2.10;99.90;;;;;;5070418;28;20206;-79
2021/01/10 01:52:49;;;;;;;34.17;23.07;;;2.10;99.90;;;;;;5069852;28;20206;-80
2021/01/10 01:55:15;;;;;;;37.07;25.13;;;2.10;99.90;;;;;;5069727;28;20206;-75
2021/01/10 01:57:42;;;;;;;29.97;22.97;;;2.00;99.90;;;;;;5069737;28;20264;-73
2021/01/10 02:00:09;;;;;;;35.70;24.97;;;2.00;99.90;;;;;;5070050;28;20206;-73
2021/01/10 02:02:35;;;;;;;34.77;25.40;;;2.10;99.90;;;;;;5070587;28;20209;-78
2021/01/10 02:05:07;;;;;;;34.33;23.87;;;2.00;99.90;;;;;;5070045;28;20206;-77
2021/01/10 02:07:42;;;;;;;32.33;22.33;;;2.00;99.90;;;;;;5070466;28;20314;-75
2021/01/10 02:10:11;;;;;;;32.00;22.67;;;2.00;99.90;;;;;;5062862;28;20202;-75
2021/01/10 02:12:45;;;;;;;31.07;21.93;;;2.00;99.90;;;;;;5070377;28;20210;-74
2021/01/10 02:15:15;;;;;;;34.07;23.00;;;1.90;99.90;;;;;;5069990;28;20221;-74
2021/01/10 02:17:45;;;;;;;28.47;19.13;;;1.90;99.90;;;;;;5069383;28;20271;-75
2021/01/10 02:20:15;;;;;;;31.93;22.43;;;2.10;99.90;;;;;;5072957;28;20205;-77
2021/01/10 02:22:46;;;;;;;32.53;22.97;;;2.10;99.90;;;;;;5073052;28;20684;-74
2021/01/10 02:25:14;;;;;;;32.03;22.00;;;2.10;99.90;;;;;;5073301;28;20205;-73
2021/01/10 02:27:42;;;;;;;34.37;23.10;;;2.10;99.90;;;;;;5073249;28;20236;-71
2021/01/10 02:30:10;;;;;;;33.43;21.97;;;2.10;99.90;;;;;;5073909;28;20285;-73
2021/01/10 02:32:40;;;;;;;28.67;21.60;;;2.00;99.90;;;;;;5074194;28;20217;-76
2021/01/10 02:35:08;;;;;;;31.00;22.00;;;2.00;99.90;;;;;;5073597;28;20231;-78
2021/01/10 02:37:55;;;;;;;32.23;22.70;;;2.00;99.90;;;;;;5074231;28;20251;-74
2021/01/10 02:40:31;;;;;;;30.93;21.63;;;2.00;99.90;;;;;;5073589;28;20267;-72
2021/01/10 02:43:05;;;;;;;27.43;20.27;;;2.00;99.90;;;;;;5073372;28;20275;-84
2021/01/10 02:45:32;;;;;;;30.07;20.70;;;2.00;99.90;;;;;;5073555;28;20206;-77
2021/01/10 02:47:59;;;;;;;26.27;19.97;;;2.10;99.90;;;;;;5073520;28;20324;-76
2021/01/10 02:50:27;;;;;;;32.10;20.67;;;2.00;99.90;;;;;;5073180;28;20727;-76
2021/01/10 02:52:53;;;;;;;25.17;18.97;;;2.10;99.90;;;;;;5072566;28;20259;-76
2021/01/10 02:55:20;;;;;;;26.17;19.87;;;2.20;99.90;;;;;;5073198;28;20301;-77
2021/01/10 02:57:52;;;;;;;25.63;18.17;;;2.20;99.90;;;;;;5073060;28;20206;-84
2021/01/10 03:00:21;;;;;;;27.40;18.30;;;2.20;99.90;;;;;;5073174;28;20552;-79
2021/01/10 03:02:49;;;;;;;27.43;20.60;;;2.10;99.90;;;;;;5072238;28;20662;-77
2021/01/10 03:05:16;;;;;;;26.13;17.90;;;2.20;99.90;;;;;;5073158;28;20575;-78
2021/01/10 03:07:44;;;;;;;29.53;19.63;;;2.30;99.90;;;;;;5071627;28;20237;-76
2021/01/10 03:10:12;;;;;;;28.60;19.40;;;2.20;99.90;;;;;;5072737;28;20208;-73
2021/01/10 03:12:39;;;;;;;29.23;18.43;;;2.10;99.90;;;;;;5072790;28;20312;-70
2021/01/10 03:15:08;;;;;;;26.40;19.37;;;2.10;99.90;;;;;;5072978;28;20693;-73
2021/01/10 03:17:37;;;;;;;28.80;20.90;;;2.10;99.90;;;;;;5072732;28;20221;-77
2021/01/10 03:20:07;;;;;;;29.80;21.10;;;2.10;99.90;;;;;;5073104;28;20204;-77
2021/01/10 03:22:34;;;;;;;26.70;20.53;;;2.10;99.90;;;;;;5072783;28;20214;-73
2021/01/10 03:25:00;;;;;;;27.83;20.93;;;2.00;99.90;;;;;;5072085;28;20210;-71
2021/01/10 03:27:27;;;;;;;32.40;21.83;;;2.10;99.90;;;;;;5072469;28;20277;-76
2021/01/10 03:29:53;;;;;;;28.83;22.50;;;2.00;99.90;;;;;;5071623;28;20582;-78
2021/01/10 03:32:21;;;;;;;34.17;23.80;;;1.90;99.90;;;;;;5072835;28;20204;-73
2021/01/10 03:34:47;;;;;;;35.53;24.50;;;1.90;99.90;;;;;;5071693;28;20217;-78
2021/01/10 03:37:14;;;;;;;34.87;23.47;;;1.90;99.90;;;;;;5072551;28;20206;-77
2021/01/10 03:39:40;;;;;;;31.93;22.97;;;1.80;99.90;;;;;;5071862;28;20217;-74
2021/01/10 03:42:07;;;;;;;30.63;22.27;;;1.80;99.90;;;;;;5072742;28;20198;-81
2021/01/10 03:44:34;;;;;;;30.10;21.53;;;1.80;99.90;;;;;;5072906;28;20208;-79
2021/01/10 03:47:01;;;;;;;31.20;21.50;;;1.80;99.90;;;;;;5071611;28;20645;-70
2021/01/10 03:49:28;;;;;;;33.87;22.87;;;1.90;99.90;;;;;;5072193;28;20658;-73
2021/01/10 03:51:54;;;;;;;30.60;21.80;;;1.90;99.90;;;;;;5071330;28;20241;-77
2021/01/10 03:54:21;;;;;;;27.13;21.73;;;1.90;99.90;;;;;;5071975;28;20202;-72
2021/01/10 03:56:48;;;;;;;27.40;18.37;;;1.90;99.90;;;;;;5071648;28;20267;-73
2021/01/10 03:59:14;;;;;;;28.87;18.97;;;1.80;99.90;;;;;;5071850;28;20220;-76
2021/01/10 04:01:41;;;;;;;23.80;18.27;;;1.70;99.90;;;;;;5071428;28;20202;-72
2021/01/10 04:04:07;;;;;;;26.33;17.97;;;1.80;99.90;;;;;;5071220;28;20206;-71
2021/01/10 04:06:35;;;;;;;30.60;19.87;;;1.80;99.90;;;;;;5071873;28;20230;-71
2021/01/10 04:09:01;;;;;;;24.90;18.17;;;1.90;99.90;;;;;;5071309;28;20206;-78
2021/01/10 04:11:28;;;;;;;26.77;17.80;;;1.90;99.90;;;;;;5071824;28;20244;-80
2021/01/10 04:13:54;;;;;;;24.70;17.50;;;1.90;99.90;;;;;;5071393;28;20205;-73
2021/01/10 04:16:21;;;;;;;28.03;20.73;;;1.80;99.90;;;;;;5071695;28;20215;-74
2021/01/10 04:18:47;;;;;;;29.67;19.80;;;1.80;99.90;;;;;;5071085;28;20210;-75
2021/01/10 04:21:13;;;;;;;26.03;18.87;;;1.80;99.90;;;;;;5071798;28;20210;-73
2021/01/10 04:23:41;;;;;;;30.13;19.93;;;1.70;99.90;;;;;;5071579;28;20206;-74
2021/01/10 04:26:07;;;;;;;24.93;17.07;;;1.90;99.90;;;;;;5071568;28;20213;-70
2021/01/10 04:28:34;;;;;;;26.40;19.37;;;2.00;99.90;;;;;;5071868;28;20244;-76
2021/01/10 04:31:01;;;;;;;28.60;17.83;;;2.00;99.90;;;;;;5070962;28;20586;-71
2021/01/10 04:33:28;;;;;;;28.17;18.93;;;2.00;99.90;;;;;;5070964;28;20217;-73
2021/01/10 04:35:54;;;;;;;25.67;18.53;;;1.90;99.90;;;;;;5070987;28;20210;-72
2021/01/10 04:38:21;;;;;;;27.07;18.87;;;1.80;99.90;;;;;;5071107;28;20218;-81
2021/01/10 04:40:48;;;;;;;29.10;18.90;;;1.90;99.90;;;;;;5070509;28;20665;-74
2021/01/10 04:43:15;;;;;;;26.20;20.37;;;1.90;99.90;;;;;;5070743;28;20202;-71
2021/01/10 04:45:42;;;;;;;29.33;20.07;;;1.80;99.90;;;;;;5070655;28;20212;-73
2021/01/10 04:48:10;;;;;;;26.40;19.07;;;1.70;99.90;;;;;;5070754;28;20229;-70
2021/01/10 04:50:38;;;;;;;27.37;19.47;;;1.80;99.90;;;;;;5071150;28;20611;-69
2021/01/10 04:53:07;;;;;;;24.17;18.60;;;1.70;99.90;;;;;;5071524;28;20213;-78
2021/01/10 04:55:33;;;;;;;26.07;17.80;;;1.90;99.90;;;;;;5071059;28;20210;-74
2021/01/10 04:58:05;;;;;;;25.40;17.17;;;1.80;99.90;;;;;;5070408;28;20252;-70
2021/01/10 05:00:32;;;;;;;22.70;16.17;;;1.70;99.90;;;;;;5070494;28;20635;-81
2021/01/10 05:03:06;;;;;;;15.03;11.27;;;1.70;99.90;;;;;;5070625;28;20246;-79
2021/01/10 05:05:37;;;;;;;13.60;11.47;;;1.60;99.90;;;;;;5070966;28;20216;-80
2021/01/10 05:08:08;;;;;;;15.13;11.10;;;1.70;99.90;;;;;;5070894;28;20234;-75
2021/01/10 05:10:35;;;;;;;17.70;11.63;;;1.70;99.90;;;;;;5071123;28;20206;-69
2021/01/10 05:13:01;;;;;;;17.30;11.60;;;1.80;99.90;;;;;;5070594;28;20678;-79
2021/01/10 05:15:29;;;;;;;15.63;10.43;;;1.60;99.90;;;;;;5070974;28;20221;-71
2021/01/10 05:17:56;;;;;;;15.77;11.07;;;1.60;99.90;;;;;;5070239;28;20209;-82
2021/01/10 05:20:25;;;;;;;12.10;9.17;;;1.50;99.90;;;;;;5070950;28;20285;-78
2021/01/10 05:22:51;;;;;;;16.63;10.80;;;1.50;99.90;;;;;;5070137;28;20233;-73
2021/01/10 05:25:18;;;;;;;15.13;10.87;;;1.50;99.90;;;;;;5070487;28;20679;-80
2021/01/10 05:27:49;;;;;;;12.30;8.90;;;1.60;99.90;;;;;;5070209;28;20226;-78
2021/01/10 05:30:25;;;;;;;16.70;10.90;;;1.50;99.90;;;;;;5070799;28;20209;-74
2021/01/10 05:33:00;;;;;;;13.73;9.67;;;1.50;99.90;;;;;;5070014;28;20202;-79
2021/01/10 05:35:26;;;;;;;15.17;10.50;;;1.50;99.90;;;;;;5057538;28;20210;-77
2021/01/10 05:37:57;;;;;;;13.67;9.83;;;1.50;99.90;;;;;;5070107;28;20677;-80
2021/01/10 05:40:30;;;;;;;13.87;8.83;;;1.50;99.90;;;;;;5070800;28;20205;-85
2021/01/10 05:42:57;;;;;;;12.07;9.37;;;1.50;99.90;;;;;;5070102;28;20224;-72
2021/01/10 05:45:34;;;;;;;15.30;9.53;;;1.60;99.90;;;;;;5069995;28;20213;-71
2021/01/10 05:48:10;;;;;;;13.33;10.37;;;1.70;99.90;;;;;;5069722;28;20237;-77
2021/01/10 05:50:47;;;;;;;17.30;9.83;;;1.50;99.90;;;;;;5070256;28;20263;-72
2021/01/10 05:53:19;;;;;;;13.50;9.77;;;1.50;99.90;;;;;;5071684;28;20206;-77
2021/01/10 05:55:57;;;;;;;16.73;11.90;;;1.70;99.90;;;;;;5073680;28;20205;-74
2021/01/10 05:58:24;;;;;;;20.57;16.90;;;1.90;99.90;;;;;;5074262;28;20233;-72
2021/01/10 06:00:52;;;;;;;18.83;12.80;;;2.00;99.90;;;;;;5072737;28;20201;-77
2021/01/10 06:03:21;;;;;;;17.83;15.93;;;2.00;99.90;;;;;;5074089;28;20255;-77
2021/01/10 06:05:55;;;;;;;14.20;11.20;;;2.00;99.90;;;;;;5072042;28;20210;-74
2021/01/10 06:08:29;;;;;;;15.83;11.47;;;1.90;99.90;;;;;;5074101;28;20340;-74
2021/01/10 06:11:16;;;;;;;15.67;10.63;;;1.80;99.90;;;;;;5073278;28;20197;-75
2021/01/10 06:13:48;;;;;;;15.67;10.47;;;1.90;99.90;;;;;;5073380;28;20210;-69
2021/01/10 06:16:15;;;;;;;14.83;9.50;;;1.90;99.90;;;;;;5060810;28;20243;-79
2021/01/10 06:18:45;;;;;;;11.37;9.40;;;1.90;99.90;;;;;;5073809;28;20220;-75
2021/01/10 06:21:17;;;;;;;12.00;8.77;;;1.90;99.90;;;;;;5074281;28;20206;-76
2021/01/10 06:23:48;;;;;;;14.53;10.80;;;1.90;99.90;;;;;;5073643;28;20214;-76
2021/01/10 06:26:18;;;;;;;18.57;10.87;;;1.90;99.90;;;;;;5072343;28;20202;-85
2021/01/10 06:28:54;;;;;;;14.10;10.03;;;1.90;99.90;;;;;;5073739;28;20639;-76
2021/01/10 06:31:24;;;;;;;13.70;10.47;;;1.90;99.90;;;;;;5073926;28;20202;-85
2021/01/10 06:34:03;;;;;;;17.10;10.40;;;1.80;99.90;;;;;;5073082;28;20225;-80
2021/01/10 06:36:32;;;;;;;14.00;9.50;;;1.70;99.90;;;;;;5073207;28;20221;-80
2021/01/10 06:39:01;;;;;;;16.20;10.57;;;1.70;99.90;;;;;;5073075;28;20206;-80
2021/01/10 06:42:05;;;;;;;14.77;10.17;;;1.70;99.90;;;;;;5073141;28;20244;-79
2021/01/10 06:44:35;;;;;;;15.43;9.93;;;1.70;99.90;;;;;;5072601;28;20206;-71
2021/01/10 06:47:02;;;;;;;16.17;10.60;;;1.80;99.90;;;;;;5072584;28;20709;-82
2021/01/10 06:49:29;;;;;;;15.53;11.27;;;1.80;99.90;;;;;;5073061;28;20241;-74
2021/01/10 06:51:58;;;;;;;18.17;11.20;;;1.90;99.90;;;;;;5072563;28;21778;-78
2021/01/10 06:54:26;;;;;;;16.20;9.70;;;1.90;99.90;;;;;;5073038;28;20206;-73
2021/01/10 06:56:54;;;;;;;14.80;10.57;;;1.80;99.90;;;;;;5072447;28;20252;-79
2021/01/10 06:59:22;;;;;;;13.83;10.30;;;1.80;99.90;;;;;;5072482;28;20206;-80
2021/01/10 07:02:03;;;;;;;19.53;12.43;;;1.70;99.90;;;;;;5072682;28;20229;-78
2021/01/10 07:04:55;;;;;;;13.27;9.73;;;1.80;99.90;;;;;;5066521;28;20205;-77
2021/01/10 07:07:46;;;;;;;14.67;10.50;;;1.90;99.90;;;;;;5068469;28;20648;-85
2021/01/10 07:10:23;;;;;;;15.07;9.93;;;1.90;99.90;;;;;;5051196;28;20210;-78
2021/01/10 07:12:50;;;;;;;14.93;10.03;;;1.90;99.90;;;;;;5071823;28;20213;-81
2021/01/10 07:15:27;;;;;;;14.67;10.17;;;2.00;99.90;;;;;;5071666;28;20234;-72
2021/01/10 07:18:10;;;;;;;21.73;10.27;;;1.90;99.90;;;;;;5064807;28;20215;-76
2021/01/10 07:20:43;;;;;;;13.17;9.30;;;1.90;99.90;;;;;;5072827;28;20214;-76
2021/01/10 07:23:39;;;;;;;14.13;10.17;;;1.80;99.90;;;;;;5072553;28;20194;-76
2021/01/10 07:26:26;;;;;;;12.83;9.93;;;1.80;99.90;;;;;;5010938;28;20208;-74
2021/01/10 07:28:52;;;;;;;14.23;10.13;;;1.70;99.90;;;;;;5066184;28;20665;-78
2021/01/10 07:31:20;;;;;;;16.33;11.30;;;1.70;99.90;;;;;;5072131;28;20662;-79
2021/01/10 07:34:06;;;;;;;15.23;10.27;;;1.80;99.90;;;;;;5072072;28;20221;-79
2021/01/10 07:36:51;;;;;;;14.37;10.70;;;1.80;99.90;;;;;;5072435;28;20217;-79
2021/01/10 07:39:20;;;;;;;13.57;10.43;;;1.90;99.90;;;;;;5070997;28;20206;-74
2021/01/10 07:41:46;;;;;;;15.13;10.30;;;2.00;99.90;;;;;;5071438;28;20202;-81
2021/01/10 07:44:13;;;;;;;14.93;10.43;;;1.90;99.90;;;;;;5072424;28;20580;-81
2021/01/10 07:47:00;;;;;;;15.50;12.00;;;1.80;99.90;;;;;;5072102;28;20670;-75
2021/01/10 07:49:49;;;;;;;14.67;11.67;;;1.90;99.90;;;;;;5072524;28;20206;-79
2021/01/10 07:52:17;;;;;;;14.90;10.90;;;1.90;99.90;;;;;;5070913;28;20203;-77
2021/01/10 07:54:54;;;;;;;13.23;11.10;;;2.00;99.90;;;;;;5063404;28;20270;-78
2021/01/10 07:57:31;;;;;;;17.07;11.10;;;2.10;99.90;;;;;;5071328;28;20677;-78
2021/01/10 08:00:09;;;;;;;15.60;11.37;;;2.20;99.90;;;;;;5071567;28;20202;-77
2021/01/10 08:02:53;;;;;;;15.63;11.53;;;2.20;99.90;;;;;;5061053;28;20205;-78
2021/01/10 08:05:21;;;;;;;19.57;11.93;;;2.20;99.90;;;;;;5071536;28;20225;-73
2021/01/10 08:07:53;;;;;;;17.60;10.97;;;2.20;99.90;;;;;;5070862;28;20265;-80
2021/01/10 08:10:20;;;;;;;16.60;10.83;;;2.20;99.90;;;;;;5070783;28;20657;-73
2021/01/10 08:12:47;;;;;;;17.27;10.63;;;2.20;99.90;;;;;;5065524;28;20210;-76
2021/01/10 08:15:14;;;;;;;21.77;11.30;;;2.30;99.90;;;;;;5069700;28;20202;-76
2021/01/10 08:17:41;;;;;;;16.73;11.93;;;2.30;99.90;;;;;;5069151;28;20218;-78
2021/01/10 08:20:09;;;;;;;17.27;11.17;;;2.40;99.90;;;;;;5071618;28;20256;-77
2021/01/10 08:22:37;;;;;;;16.23;11.13;;;2.40;99.90;;;;;;5071188;28;20206;-75
2021/01/10 08:25:06;;;;;;;14.07;10.70;;;2.50;99.90;;;;;;5071052;28;20207;-78
2021/01/10 08:27:33;;;;;;;16.13;11.00;;;2.40;99.90;;;;;;5071333;28;20226;-78
2021/01/10 08:30:00;;;;;;;15.17;11.57;;;2.40;99.90;;;;;;5070569;28;20213;-76
2021/01/10 08:32:27;;;;;;;17.47;12.10;;;2.40;99.90;;;;;;5069966;28;20651;-79
2021/01/10 08:34:55;;;;;;;24.40;18.20;;;2.40;99.90;;;;;;5069621;28;20266;-79
2021/01/10 08:37:23;;;;;;;22.60;13.17;;;2.40;99.90;;;;;;5070978;28;20628;-79
2021/01/10 08:39:57;;;;;;;18.17;12.23;;;2.50;99.90;;;;;;5070388;28;20213;-76
2021/01/10 08:42:25;;;;;;;17.47;11.37;;;2.50;99.90;;;;;;5070990;28;20608;-79
2021/01/10 08:44:51;;;;;;;18.60;13.67;;;2.50;99.90;;;;;;5070512;28;20237;-75
2021/01/10 08:47:18;;;;;;;15.40;12.30;;;2.50;99.90;;;;;;5071175;28;20284;-89
2021/01/10 08:49:44;;;;;;;14.30;11.87;;;2.50;99.90;;;;;;5070758;28;20585;-78
2021/01/10 08:52:12;;;;;;;19.03;12.23;;;2.60;99.90;;;;;;5068905;28;20682;-78
2021/01/10 08:54:38;;;;;;;16.57;12.93;;;2.60;99.90;;;;;;5063476;28;20228;-78
2021/01/10 08:57:05;;;;;;;19.13;11.90;;;2.80;99.90;;;;;;5058688;28;20210;-76
2021/01/10 08:59:39;;;;;;;15.67;10.73;;;2.80;99.90;;;;;;5067688;28;20232;-79
2021/01/10 09:02:09;;;;;;;16.73;10.00;;;2.70;99.90;;;;;;5070614;28;20209;-76
2021/01/10 09:04:40;;;;;;;16.27;11.20;;;2.70;99.90;;;;;;5071077;28;20674;-78
2021/01/10 09:07:16;;;;;;;17.03;11.33;;;2.80;99.90;;;;;;5070824;28;20533;-77
2021/01/10 09:09:46;;;;;;;14.90;10.03;;;3.00;99.90;;;;;;5070377;28;20213;-79
2021/01/10 09:12:24;;;;;;;14.33;11.03;;;3.20;99.90;;;;;;5070344;28;20242;-78
2021/01/10 09:14:56;;;;;;;14.93;10.40;;;3.30;99.90;;;;;;5070195;28;20213;-77
2021/01/10 09:17:26;;;;;;;13.77;10.67;;;3.30;99.90;;;;;;5070207;28;20217;-78
2021/01/10 09:20:01;;;;;;;17.07;10.87;;;3.20;99.90;;;;;;5069916;28;20662;-78
2021/01/10 09:22:30;;;;;;;14.50;10.70;;;3.20;99.90;;;;;;5070412;28;20554;-75
2021/01/10 09:24:56;;;;;;;14.03;10.70;;;3.40;99.90;;;;;;5069708;28;20233;-76
2021/01/10 09:27:23;;;;;;;16.53;13.47;;;3.40;99.90;;;;;;5070256;28;20273;-74
2021/01/10 09:29:50;;;;;;;19.13;10.73;;;3.40;99.90;;;;;;5069919;28;20209;-75
2021/01/10 09:32:24;;;;;;;17.73;11.13;;;3.40;99.90;;;;;;5070763;28;20202;-73
2021/01/10 09:34:55;;;;;;;16.77;11.73;;;3.40;99.90;;;;;;5070192;28;20232;-76
2021/01/10 09:37:30;;;;;;;14.87;10.47;;;3.40;99.90;;;;;;5070329;28;20209;-77
2021/01/10 09:40:07;;;;;;;13.40;9.63;;;3.50;99.90;;;;;;5069651;28;20617;-77
2021/01/10 09:42:45;;;;;;;15.70;11.80;;;3.50;99.90;;;;;;5064725;28;20210;-77
2021/01/10 09:45:13;;;;;;;14.33;10.80;;;3.40;99.90;;;;;;5068586;28;20252;-75
2021/01/10 09:47:41;;;;;;;12.63;10.53;;;3.40;99.90;;;;;;5069142;28;20283;-74
2021/01/10 09:50:13;;;;;;;13.47;10.73;;;3.50;99.90;;;;;;5069919;28;20231;-75
2021/01/10 09:52:49;;;;;;;17.60;11.80;;;3.60;99.90;;;;;;5070065;28;20693;-72
2021/01/10 09:55:16;;;;;;;16.87;12.17;;;3.70;99.90;;;;;;5070177;28;20298;-76
2021/01/10 09:57:43;;;;;;;16.07;11.10;;;3.70;99.90;;;;;;5069849;28;20217;-77
2021/01/10 10:00:15;;;;;;;15.53;11.80;;;3.70;99.90;;;;;;5067917;28;20202;-77
2021/01/10 10:02:43;;;;;;;16.20;11.97;;;3.80;99.90;;;;;;5065873;28;20293;-75
2021/01/10 10:05:13;;;;;;;17.23;11.63;;;3.90;99.90;;;;;;5070097;28;20203;-76
2021/01/10 10:07:41;;;;;;;18.50;13.20;;;3.90;99.90;;;;;;5069702;28;20237;-71
2021/01/10 10:10:23;;;;;;;18.00;13.03;;;4.00;99.90;;;;;;5070120;28;20697;-71
2021/01/10 10:12:57;;;;;;;21.40;14.10;;;4.00;99.90;;;;;;5059728;28;20203;-76
2021/01/10 10:15:35;;;;;;;18.90;13.43;;;4.00;99.90;;;;;;5070074;28;20274;-73
2021/01/10 10:18:03;;;;;;;15.37;10.77;;;4.00;99.90;;;;;;5060125;28;20212;-77
2021/01/10 10:20:30;;;;;;;17.43;12.43;;;3.90;99.90;;;;;;5069885;28;20202;-78
2021/01/10 10:23:06;;;;;;;20.77;14.60;;;4.10;99.90;;;;;;5069412;28;20228;-78
2021/01/10 10:25:32;;;;;;;22.30;14.70;;;4.30;99.90;;;;;;5063730;28;20209;-76
2021/01/10 10:28:00;;;;;;;21.07;14.47;;;4.40;99.90;;;;;;5065592;28;20273;-75
2021/01/10 10:30:27;;;;;;;21.23;14.23;;;4.50;99.90;;;;;;5069896;28;20218;-76
2021/01/10 10:32:54;;;;;;;18.50;12.23;;;4.30;99.90;;;;;;5069494;28;20674;-77
2021/01/10 10:35:22;;;;;;;19.60;15.23;;;4.10;99.90;;;;;;5064207;28;20207;-72
2021/01/10 10:37:49;;;;;;;22.10;16.10;;;4.10;99.90;;;;;;5069421;28;20209;-74
2021/01/10 10:40:16;;;;;;;20.73;14.73;;;4.10;99.90;;;;;;5071219;28;20206;-77
2021/01/10 10:42:42;;;;;;;25.33;16.80;;;4.10;99.90;;;;;;5073094;28;20206;-75
2021/01/10 10:45:10;;;;;;;23.43;16.13;;;4.10;99.90;;;;;;5073152;28;20580;-74
2021/01/10 10:47:36;;;;;;;24.80;16.90;;;4.20;99.90;;;;;;5073480;28;20261;-76
2021/01/10 10:50:04;;;;;;;21.93;16.27;;;4.40;99.90;;;;;;5072748;28;20206;-72
2021/01/10 10:52:32;;;;;;;24.13;16.77;;;4.60;99.90;;;;;;5072931;28;20210;-78
2021/01/10 10:54:58;;;;;;;23.50;16.90;;;4.90;99.90;;;;;;5073003;28;20214;-76
2021/01/10 10:57:25;;;;;;;22.87;15.40;;;4.80;99.90;;;;;;5073040;28;20206;-75
2021/01/10 10:59:51;;;;;;;20.30;16.90;;;4.90;99.90;;;;;;5072716;28;20218;-76
2021/01/10 11:02:18;;;;;;;21.60;15.50;;;5.00;99.90;;;;;;5072848;28;20210;-77
2021/01/10 11:04:45;;;;;;;19.50;14.57;;;4.70;99.90;;;;;;5069317;28;20203;-75
2021/01/10 11:07:12;;;;;;;23.17;16.80;;;4.70;99.90;;;;;;5070083;28;20310;-73
2021/01/10 11:09:40;;;;;;;20.83;16.93;;;4.50;99.90;;;;;;5069181;28;20255;-73
2021/01/10 11:12:09;;;;;;;23.50;16.97;;;4.50;99.90;;;;;;5070996;28;20206;-70
2021/01/10 11:14:35;;;;;;;24.27;17.60;;;4.50;99.90;;;;;;5070536;28;20210;-75
2021/01/10 11:17:04;;;;;;;17.43;13.47;;;4.40;99.90;;;;;;5063716;28;20219;-74
2021/01/10 11:19:31;;;;;;;17.53;12.23;;;4.50;99.90;;;;;;5072186;28;20702;-75
2021/01/10 11:22:00;;;;;;;16.43;11.70;;;4.40;99.90;;;;;;5071903;28;20967;-75
2021/01/10 11:24:26;;;;;;;19.77;12.30;;;4.30;99.90;;;;;;5072535;28;20210;-68
2021/01/10 11:26:54;;;;;;;18.97;12.83;;;4.20;99.90;;;;;;5064347;28;20267;-71
2021/01/10 11:29:20;;;;;;;19.43;14.40;;;3.80;99.90;;;;;;5072532;28;20202;-75
2021/01/10 11:31:47;;;;;;;19.67;13.77;;;3.90;99.90;;;;;;5071463;28;20232;-71
2021/01/10 11:34:15;;;;;;;18.37;13.57;;;3.70;99.90;;;;;;5071748;28;20209;-75
2021/01/10 11:36:43;;;;;;;16.20;12.03;;;3.70;99.90;;;;;;5071246;28;20705;-77
2021/01/10 11:39:10;;;;;;;19.93;12.97;;;4.10;99.90;;;;;;5072219;28;20218;-77
2021/01/10 11:41:37;;;;;;;18.90;13.40;;;4.30;99.90;;;;;;5071536;28;20677;-73
2021/01/10 11:44:05;;;;;;;21.57;14.53;;;4.30;99.90;;;;;;5071969;28;20204;-77
2021/01/10 11:46:32;;;;;;;19.97;14.03;;;4.10;99.90;;;;;;5072039;28;20218;-77
2021/01/10 11:48:58;;;;;;;16.50;12.67;;;3.90;99.90;;;;;;5071305;28;20237;-77
2021/01/10 11:51:25;;;;;;;17.47;12.33;;;3.90;99.90;;;;;;5071857;28;20205;-71
2021/01/10 11:53:52;;;;;;;19.43;13.97;;;4.00;99.90;;;;;;5071652;28;20293;-74
2021/01/10 11:56:18;;;;;;;13.97;11.13;;;3.90;99.90;;;;;;5071755;28;20203;-74
2021/01/10 11:58:44;;;;;;;17.03;14.40;;;3.70;99.90;;;;;;5071408;28;20271;-74
2021/01/10 12:01:12;;;;;;;15.97;13.00;;;3.60;99.90;;;;;;5071663;28;20210;-71
2021/01/10 12:03:38;;;;;;;19.63;12.97;;;3.50;99.90;;;;;;5071279;28;20214;-77
2021/01/10 12:06:05;;;;;;;17.43;11.27;;;3.60;99.90;;;;;;5072801;28;20206;-72
2021/01/10 12:08:31;;;;;;;17.97;12.70;;;3.70;99.90;;;;;;5071730;28;20237;-77
2021/01/10 12:10:59;;;;;;;16.30;12.30;;;3.60;99.90;;;;;;5071305;28;20210;-78
2021/01/10 12:13:25;;;;;;;18.47;13.17;;;3.60;99.90;;;;;;5071979;28;20210;-77
2021/01/10 12:15:52;;;;;;;18.33;13.57;;;3.60;99.90;;;;;;5070409;28;20214;-80
2021/01/10 12:18:19;;;;;;;17.70;12.80;;;3.70;99.90;;;;;;5071055;28;20198;-78
2021/01/10 12:20:45;;;;;;;20.53;15.97;;;3.60;99.90;;;;;;5071434;28;20206;-78
2021/01/10 12:23:12;;;;;;;20.43;14.17;;;3.80;99.90;;;;;;5070151;28;20206;-77
2021/01/10 12:25:38;;;;;;;18.33;13.80;;;4.00;99.90;;;;;;5071760;28;20206;-72
2021/01/10 12:28:05;;;;;;;17.63;13.33;;;3.90;99.90;;;;;;5072344;28;20226;-77
2021/01/10 12:30:31;;;;;;;18.27;12.63;;;3.90;99.90;;;;;;5071574;28;20224;-73
2021/01/10 12:32:59;;;;;;;16.57;13.53;;;3.70;99.90;;;;;;5070700;28;20670;-72
2021/01/10 12:35:26;;;;;;;24.77;15.90;;;3.50;99.90;;;;;;5071465;28;20213;-75
2021/01/10 12:37:53;;;;;;;19.17;15.00;;;3.60;99.90;;;;;;5071312;28;20260;-77
2021/01/10 12:40:19;;;;;;;19.07;14.57;;;3.90;99.90;;;;;;5071221;28;20696;-75
2021/01/10 12:42:47;;;;;;;18.30;14.57;;;4.00;99.90;;;;;;5064429;28;20207;-75
2021/01/10 12:45:15;;;;;;;18.03;12.63;;;4.20;99.90;;;;;;5068496;28;20203;-77
2021/01/10 12:47:42;;;;;;;16.93;11.43;;;4.10;99.90;;;;;;5070189;28;20222;-83